This is the latest recevied weather packets stored in our database for station/object HS1WDC-1. If no packets are shown the sender has not sent any weather packets the latest 10 day(s).
| Time | Temp. | Humidity | Pressure | Rain* | Wind** | Luminosity | Snow |
|---|---|---|---|---|---|---|---|
| 1777580086 | 31.67° C | 62% | 1009 hPa | - | - | 0 W/m² | - |
| 1777579162 | 30° C | 69% | 1008 hPa | - | - | 0 W/m² | - |
| 1777576093 | 32.78° C | 58% | 1008 hPa | - | - | 0 W/m² | - |
| 1777575169 | 31.67° C | 62% | 1009 hPa | - | - | 0 W/m² | - |
| 1777574244 | 32.22° C | 61% | 1009 hPa | - | - | 0 W/m² | - |
| 1777573320 | 32.78° C | 59% | 1009 hPa | - | - | 0 W/m² | - |
| 1777572396 | 32.22° C | 61% | 1010 hPa | - | - | 0 W/m² | - |
| 1777571472 | 32.78° C | 60% | 1010 hPa | - | - | 0 W/m² | - |
| 1777570547 | 32.78° C | 59% | 1011 hPa | - | - | 0 W/m² | - |
| 1777569623 | 32.78° C | 59% | 1011 hPa | - | - | 0 W/m² | - |
| 1777568699 | 32.78° C | 58% | 1012 hPa | - | - | 0 W/m² | - |
| 1777567775 | 33.33° C | 58% | 1012 hPa | - | - | 0 W/m² | - |
| 1777566850 | 33.33° C | 57% | 1013 hPa | - | - | 0 W/m² | - |
| 1777565926 | 33.89° C | 55% | 1013 hPa | - | - | 0 W/m² | - |
| 1777565001 | 33.89° C | 55% | 1012 hPa | - | - | 0 W/m² | - |
| 1777564077 | 33.89° C | 54% | 1011 hPa | - | - | 0 W/m² | - |
| 1777563153 | 33.89° C | 56% | 1011 hPa | - | - | 0 W/m² | - |
| 1777562229 | 33.89° C | 55% | 1011 hPa | - | - | 0 W/m² | - |
| 1777561304 | 33.89° C | 54% | 1011 hPa | - | - | 0 W/m² | - |
| 1777560380 | 34.44° C | 53% | 1010 hPa | - | - | 0 W/m² | - |
| 1777559456 | 35° C | 51% | 1010 hPa | - | - | 0 W/m² | - |
| 1777558531 | 35° C | 51% | 1011 hPa | - | - | 0 W/m² | - |
| 1777557607 | 35.56° C | 51% | 1010 hPa | - | - | 0 W/m² | - |
| 1777556683 | 35.56° C | 51% | 1010 hPa | - | - | 0 W/m² | - |
| 1777555759 | 35.56° C | 51% | 1007 hPa | - | - | 0 W/m² | - |
* Rain since midnight (hover to see other rain measurements)
** Current wind speed in m/s (hover to see current wind gust speed)